sensor_id;sensor_type;location;lat;lon;timestamp;P1;durP1;ratioP1;P2;durP2;ratioP2
60964;SDS011;46834;51.100;6.886;2023-02-28T00:00:23;3.00;;;1.70;;
60964;SDS011;46834;51.100;6.886;2023-02-28T00:02:49;2.77;;;1.70;;
60964;SDS011;46834;51.100;6.886;2023-02-28T00:05:17;2.97;;;2.00;;
60964;SDS011;46834;51.100;6.886;2023-02-28T00:07:45;3.10;;;1.80;;
60964;SDS011;46834;51.100;6.886;2023-02-28T00:10:13;2.80;;;1.50;;
60964;SDS011;46834;51.100;6.886;2023-02-28T00:12:45;3.97;;;1.63;;
60964;SDS011;46834;51.100;6.886;2023-02-28T00:15:13;4.00;;;2.17;;
60964;SDS011;46834;51.100;6.886;2023-02-28T00:17:38;3.40;;;1.60;;
60964;SDS011;46834;51.100;6.886;2023-02-28T00:20:05;2.33;;;1.50;;
60964;SDS011;46834;51.100;6.886;2023-02-28T00:22:41;4.33;;;1.90;;
60964;SDS011;46834;51.100;6.886;2023-02-28T00:25:10;3.33;;;1.67;;
60964;SDS011;46834;51.100;6.886;2023-02-28T00:27:40;2.33;;;1.53;;
60964;SDS011;46834;51.100;6.886;2023-02-28T00:30:07;3.37;;;1.70;;
60964;SDS011;46834;51.100;6.886;2023-02-28T00:32:37;2.20;;;1.60;;
60964;SDS011;46834;51.100;6.886;2023-02-28T00:35:02;2.73;;;1.70;;
60964;SDS011;46834;51.100;6.886;2023-02-28T00:37:29;2.50;;;1.67;;
60964;SDS011;46834;51.100;6.886;2023-02-28T00:39:55;3.30;;;1.80;;
60964;SDS011;46834;51.100;6.886;2023-02-28T00:42:21;3.00;;;1.70;;
60964;SDS011;46834;51.100;6.886;2023-02-28T00:44:47;3.57;;;1.87;;
60964;SDS011;46834;51.100;6.886;2023-02-28T00:47:12;3.00;;;1.70;;
60964;SDS011;46834;51.100;6.886;2023-02-28T00:49:38;3.33;;;2.10;;
60964;SDS011;46834;51.100;6.886;2023-02-28T00:52:04;3.93;;;1.97;;
60964;SDS011;46834;51.100;6.886;2023-02-28T00:54:30;2.30;;;1.50;;
60964;SDS011;46834;51.100;6.886;2023-02-28T00:56:56;2.43;;;1.80;;
60964;SDS011;46834;51.100;6.886;2023-02-28T00:59:21;2.13;;;1.50;;
60964;SDS011;46834;51.100;6.886;2023-02-28T01:01:47;2.67;;;1.80;;
60964;SDS011;46834;51.100;6.886;2023-02-28T01:04:13;3.93;;;1.60;;
60964;SDS011;46834;51.100;6.886;2023-02-28T01:06:40;6.10;;;1.60;;
60964;SDS011;46834;51.100;6.886;2023-02-28T01:09:06;2.07;;;1.43;;
60964;SDS011;46834;51.100;6.886;2023-02-28T01:11:33;4.07;;;1.60;;
60964;SDS011;46834;51.100;6.886;2023-02-28T01:14:00;2.53;;;1.50;;
60964;SDS011;46834;51.100;6.886;2023-02-28T01:16:26;2.20;;;1.50;;
60964;SDS011;46834;51.100;6.886;2023-02-28T01:18:53;2.03;;;1.50;;
60964;SDS011;46834;51.100;6.886;2023-02-28T01:21:20;2.03;;;1.47;;
60964;SDS011;46834;51.100;6.886;2023-02-28T01:23:47;3.00;;;1.60;;
60964;SDS011;46834;51.100;6.886;2023-02-28T01:28:45;1.57;;;1.20;;
60964;SDS011;46834;51.100;6.886;2023-02-28T01:31:11;2.30;;;1.50;;
60964;SDS011;46834;51.100;6.886;2023-02-28T01:33:38;1.87;;;1.50;;
60964;SDS011;46834;51.100;6.886;2023-02-28T01:36:10;2.73;;;1.60;;
60964;SDS011;46834;51.100;6.886;2023-02-28T01:38:39;3.77;;;1.70;;
60964;SDS011;46834;51.100;6.886;2023-02-28T01:41:05;2.80;;;1.67;;
60964;SDS011;46834;51.100;6.886;2023-02-28T01:43:52;2.30;;;1.60;;
60964;SDS011;46834;51.100;6.886;2023-02-28T01:46:31;2.27;;;1.73;;
60964;SDS011;46834;51.100;6.886;2023-02-28T01:49:05;2.17;;;1.60;;
60964;SDS011;46834;51.100;6.886;2023-02-28T01:51:44;1.80;;;1.50;;
60964;SDS011;46834;51.100;6.886;2023-02-28T01:56:57;3.23;;;1.50;;
60964;SDS011;46834;51.100;6.886;2023-02-28T01:59:33;3.00;;;1.80;;
60964;SDS011;46834;51.100;6.886;2023-02-28T02:02:05;3.80;;;1.80;;
60964;SDS011;46834;51.100;6.886;2023-02-28T02:05:32;2.03;;;1.40;;
60964;SDS011;46834;51.100;6.886;2023-02-28T02:07:42;2.50;;;1.50;;
60964;SDS011;46834;51.100;6.886;2023-02-28T02:12:56;2.30;;;1.57;;
60964;SDS011;46834;51.100;6.886;2023-02-28T02:15:58;2.43;;;1.53;;
60964;SDS011;46834;51.100;6.886;2023-02-28T02:24:22;2.23;;;1.70;;
60964;SDS011;46834;51.100;6.886;2023-02-28T02:27:18;2.03;;;1.60;;
60964;SDS011;46834;51.100;6.886;2023-02-28T02:30:16;2.07;;;1.60;;
60964;SDS011;46834;51.100;6.886;2023-02-28T02:33:15;3.73;;;1.70;;
60964;SDS011;46834;51.100;6.886;2023-02-28T02:39:59;2.93;;;1.90;;
60964;SDS011;46834;51.100;6.886;2023-02-28T02:42:52;3.67;;;2.00;;
60964;SDS011;46834;51.100;6.886;2023-02-28T02:45:38;4.40;;;2.10;;
60964;SDS011;46834;51.100;6.886;2023-02-28T02:48:11;4.60;;;2.57;;
60964;SDS011;46834;51.100;6.886;2023-02-28T02:50:51;2.63;;;1.90;;
60964;SDS011;46834;51.100;6.886;2023-02-28T02:53:27;3.87;;;2.23;;
60964;SDS011;46834;51.100;6.886;2023-02-28T02:56:03;3.63;;;2.13;;
60964;SDS011;46834;51.100;6.886;2023-02-28T02:58:33;4.20;;;2.40;;
60964;SDS011;46834;51.100;6.886;2023-02-28T03:01:07;3.60;;;1.93;;
60964;SDS011;46834;51.100;6.886;2023-02-28T03:03:37;5.23;;;1.90;;
60964;SDS011;46834;51.100;6.886;2023-02-28T03:06:03;4.07;;;2.30;;
60964;SDS011;46834;51.100;6.886;2023-02-28T03:08:34;4.33;;;2.07;;
60964;SDS011;46834;51.100;6.886;2023-02-28T03:11:04;3.17;;;1.93;;
60964;SDS011;46834;51.100;6.886;2023-02-28T03:16:41;2.53;;;1.80;;
60964;SDS011;46834;51.100;6.886;2023-02-28T03:19:33;3.03;;;2.03;;
60964;SDS011;46834;51.100;6.886;2023-02-28T03:22:40;2.93;;;1.80;;
60964;SDS011;46834;51.100;6.886;2023-02-28T03:25:27;3.60;;;2.10;;
60964;SDS011;46834;51.100;6.886;2023-02-28T03:28:30;3.03;;;2.10;;
60964;SDS011;46834;51.100;6.886;2023-02-28T03:31:13;3.37;;;2.00;;
60964;SDS011;46834;51.100;6.886;2023-02-28T03:33:51;5.43;;;2.57;;
60964;SDS011;46834;51.100;6.886;2023-02-28T03:36:47;3.43;;;2.30;;
60964;SDS011;46834;51.100;6.886;2023-02-28T03:39:21;4.33;;;2.40;;
60964;SDS011;46834;51.100;6.886;2023-02-28T03:42:18;4.53;;;2.73;;
60964;SDS011;46834;51.100;6.886;2023-02-28T03:44:52;5.23;;;2.40;;
60964;SDS011;46834;51.100;6.886;2023-02-28T03:47:24;4.27;;;2.40;;
60964;SDS011;46834;51.100;6.886;2023-02-28T03:50:05;3.63;;;2.10;;
60964;SDS011;46834;51.100;6.886;2023-02-28T03:52:42;3.50;;;2.13;;
60964;SDS011;46834;51.100;6.886;2023-02-28T03:55:26;3.67;;;2.37;;
60964;SDS011;46834;51.100;6.886;2023-02-28T04:01:07;3.60;;;2.27;;
60964;SDS011;46834;51.100;6.886;2023-02-28T04:03:45;5.37;;;2.30;;
60964;SDS011;46834;51.100;6.886;2023-02-28T04:06:15;4.53;;;2.43;;
60964;SDS011;46834;51.100;6.886;2023-02-28T04:08:45;3.93;;;2.30;;
60964;SDS011;46834;51.100;6.886;2023-02-28T04:13:48;5.67;;;2.37;;
60964;SDS011;46834;51.100;6.886;2023-02-28T04:16:14;4.53;;;2.17;;
60964;SDS011;46834;51.100;6.886;2023-02-28T04:18:41;3.03;;;2.20;;
60964;SDS011;46834;51.100;6.886;2023-02-28T04:21:11;5.93;;;2.57;;
60964;SDS011;46834;51.100;6.886;2023-02-28T04:23:37;3.40;;;2.10;;
60964;SDS011;46834;51.100;6.886;2023-02-28T04:26:07;4.13;;;2.37;;
60964;SDS011;46834;51.100;6.886;2023-02-28T04:28:33;5.73;;;2.30;;
60964;SDS011;46834;51.100;6.886;2023-02-28T04:31:00;2.73;;;1.90;;
60964;SDS011;46834;51.100;6.886;2023-02-28T04:33:29;2.60;;;2.10;;
60964;SDS011;46834;51.100;6.886;2023-02-28T04:36:01;4.47;;;2.03;;
60964;SDS011;46834;51.100;6.886;2023-02-28T04:38:33;2.80;;;2.20;;
60964;SDS011;46834;51.100;6.886;2023-02-28T04:41:01;2.77;;;2.00;;
60964;SDS011;46834;51.100;6.886;2023-02-28T04:43:28;3.20;;;2.10;;
60964;SDS011;46834;51.100;6.886;2023-02-28T04:45:56;7.13;;;2.00;;
60964;SDS011;46834;51.100;6.886;2023-02-28T04:48:27;2.27;;;1.77;;
60964;SDS011;46834;51.100;6.886;2023-02-28T04:50:55;2.37;;;1.90;;
60964;SDS011;46834;51.100;6.886;2023-02-28T04:53:32;2.83;;;1.80;;
60964;SDS011;46834;51.100;6.886;2023-02-28T04:55:59;4.23;;;1.90;;
60964;SDS011;46834;51.100;6.886;2023-02-28T04:58:25;4.60;;;1.90;;
60964;SDS011;46834;51.100;6.886;2023-02-28T05:00:52;1.97;;;1.60;;
60964;SDS011;46834;51.100;6.886;2023-02-28T05:03:19;2.50;;;1.50;;
60964;SDS011;46834;51.100;6.886;2023-02-28T05:05:47;2.67;;;1.80;;
60964;SDS011;46834;51.100;6.886;2023-02-28T05:08:12;5.70;;;1.80;;
60964;SDS011;46834;51.100;6.886;2023-02-28T05:10:38;2.07;;;1.60;;
60964;SDS011;46834;51.100;6.886;2023-02-28T05:13:04;1.77;;;1.60;;
60964;SDS011;46834;51.100;6.886;2023-02-28T05:15:30;2.63;;;1.63;;
60964;SDS011;46834;51.100;6.886;2023-02-28T05:17:55;3.10;;;1.53;;
60964;SDS011;46834;51.100;6.886;2023-02-28T05:20:21;2.80;;;1.63;;
60964;SDS011;46834;51.100;6.886;2023-02-28T05:22:47;2.70;;;1.40;;
60964;SDS011;46834;51.100;6.886;2023-02-28T05:25:16;1.57;;;1.37;;
60964;SDS011;46834;51.100;6.886;2023-02-28T05:27:45;1.60;;;1.50;;
60964;SDS011;46834;51.100;6.886;2023-02-28T05:30:11;3.27;;;1.67;;
60964;SDS011;46834;51.100;6.886;2023-02-28T05:32:37;1.83;;;1.63;;
60964;SDS011;46834;51.100;6.886;2023-02-28T05:35:08;1.70;;;1.40;;
60964;SDS011;46834;51.100;6.886;2023-02-28T05:37:36;4.17;;;1.57;;
60964;SDS011;46834;51.100;6.886;2023-02-28T05:40:03;1.97;;;1.50;;
60964;SDS011;46834;51.100;6.886;2023-02-28T05:42:36;3.03;;;1.83;;
60964;SDS011;46834;51.100;6.886;2023-02-28T05:45:03;2.00;;;1.33;;
60964;SDS011;46834;51.100;6.886;2023-02-28T05:47:30;2.63;;;1.60;;
60964;SDS011;46834;51.100;6.886;2023-02-28T05:49:56;2.60;;;1.60;;
60964;SDS011;46834;51.100;6.886;2023-02-28T05:52:22;2.00;;;1.50;;
60964;SDS011;46834;51.100;6.886;2023-02-28T05:54:48;2.03;;;1.50;;
60964;SDS011;46834;51.100;6.886;2023-02-28T05:57:14;6.03;;;1.60;;
60964;SDS011;46834;51.100;6.886;2023-02-28T05:59:40;3.03;;;1.50;;
60964;SDS011;46834;51.100;6.886;2023-02-28T06:02:06;2.50;;;1.40;;
60964;SDS011;46834;51.100;6.886;2023-02-28T06:04:39;2.00;;;1.30;;
60964;SDS011;46834;51.100;6.886;2023-02-28T06:07:05;1.60;;;1.50;;
60964;SDS011;46834;51.100;6.886;2023-02-28T06:09:32;1.93;;;1.60;;
60964;SDS011;46834;51.100;6.886;2023-02-28T06:11:58;1.70;;;1.30;;
60964;SDS011;46834;51.100;6.886;2023-02-28T06:14:28;3.13;;;1.53;;
60964;SDS011;46834;51.100;6.886;2023-02-28T06:16:56;2.60;;;1.60;;
60964;SDS011;46834;51.100;6.886;2023-02-28T06:19:23;1.57;;;1.20;;
60964;SDS011;46834;51.100;6.886;2023-02-28T06:21:50;2.10;;;1.50;;
60964;SDS011;46834;51.100;6.886;2023-02-28T06:24:20;3.27;;;1.57;;
60964;SDS011;46834;51.100;6.886;2023-02-28T06:26:48;1.40;;;1.30;;
60964;SDS011;46834;51.100;6.886;2023-02-28T06:29:15;1.97;;;1.57;;
60964;SDS011;46834;51.100;6.886;2023-02-28T06:31:43;3.13;;;1.57;;
60964;SDS011;46834;51.100;6.886;2023-02-28T06:34:11;2.80;;;1.57;;
60964;SDS011;46834;51.100;6.886;2023-02-28T06:36:38;3.90;;;1.57;;
60964;SDS011;46834;51.100;6.886;2023-02-28T06:39:05;3.90;;;1.70;;
60964;SDS011;46834;51.100;6.886;2023-02-28T06:41:32;5.77;;;2.30;;
60964;SDS011;46834;51.100;6.886;2023-02-28T06:44:03;2.90;;;1.80;;
60964;SDS011;46834;51.100;6.886;2023-02-28T06:46:31;4.13;;;1.77;;
60964;SDS011;46834;51.100;6.886;2023-02-28T06:48:57;5.03;;;1.70;;
60964;SDS011;46834;51.100;6.886;2023-02-28T06:51:23;2.03;;;1.60;;
60964;SDS011;46834;51.100;6.886;2023-02-28T06:53:49;2.90;;;1.80;;
60964;SDS011;46834;51.100;6.886;2023-02-28T06:56:16;2.13;;;1.47;;
60964;SDS011;46834;51.100;6.886;2023-02-28T06:58:49;6.73;;;1.90;;
60964;SDS011;46834;51.100;6.886;2023-02-28T07:01:17;2.03;;;1.53;;
60964;SDS011;46834;51.100;6.886;2023-02-28T07:03:44;3.13;;;1.70;;
60964;SDS011;46834;51.100;6.886;2023-02-28T07:06:10;9.00;;;2.27;;
60964;SDS011;46834;51.100;6.886;2023-02-28T07:08:36;3.73;;;1.90;;
60964;SDS011;46834;51.100;6.886;2023-02-28T07:11:03;3.53;;;1.70;;
60964;SDS011;46834;51.100;6.886;2023-02-28T07:13:29;5.93;;;1.60;;
60964;SDS011;46834;51.100;6.886;2023-02-28T07:16:13;1.80;;;1.60;;
60964;SDS011;46834;51.100;6.886;2023-02-28T07:18:39;2.87;;;1.40;;
60964;SDS011;46834;51.100;6.886;2023-02-28T07:21:05;1.97;;;1.60;;
60964;SDS011;46834;51.100;6.886;2023-02-28T07:23:33;1.77;;;1.33;;
60964;SDS011;46834;51.100;6.886;2023-02-28T07:26:00;2.73;;;1.60;;
60964;SDS011;46834;51.100;6.886;2023-02-28T07:28:26;3.20;;;1.60;;
60964;SDS011;46834;51.100;6.886;2023-02-28T07:30:52;2.63;;;1.60;;
60964;SDS011;46834;51.100;6.886;2023-02-28T07:33:18;2.57;;;1.80;;
60964;SDS011;46834;51.100;6.886;2023-02-28T07:35:43;2.67;;;1.70;;
60964;SDS011;46834;51.100;6.886;2023-02-28T07:38:09;2.60;;;1.93;;
60964;SDS011;46834;51.100;6.886;2023-02-28T07:40:35;2.03;;;1.50;;
60964;SDS011;46834;51.100;6.886;2023-02-28T07:43:01;2.67;;;1.67;;
60964;SDS011;46834;51.100;6.886;2023-02-28T07:45:28;3.07;;;1.60;;
60964;SDS011;46834;51.100;6.886;2023-02-28T07:47:56;2.37;;;1.50;;
60964;SDS011;46834;51.100;6.886;2023-02-28T07:50:22;2.03;;;1.50;;
60964;SDS011;46834;51.100;6.886;2023-02-28T07:52:48;1.90;;;1.50;;
60964;SDS011;46834;51.100;6.886;2023-02-28T07:55:14;3.60;;;1.50;;
60964;SDS011;46834;51.100;6.886;2023-02-28T07:57:41;4.73;;;1.77;;
60964;SDS011;46834;51.100;6.886;2023-02-28T08:00:08;6.10;;;1.50;;
60964;SDS011;46834;51.100;6.886;2023-02-28T08:02:37;1.73;;;1.53;;
60964;SDS011;46834;51.100;6.886;2023-02-28T08:05:03;1.90;;;1.50;;
60964;SDS011;46834;51.100;6.886;2023-02-28T08:07:30;5.93;;;2.10;;
60964;SDS011;46834;51.100;6.886;2023-02-28T08:09:57;3.63;;;1.60;;
60964;SDS011;46834;51.100;6.886;2023-02-28T08:12:23;2.77;;;1.30;;
60964;SDS011;46834;51.100;6.886;2023-02-28T08:14:48;1.87;;;1.60;;
60964;SDS011;46834;51.100;6.886;2023-02-28T08:17:14;3.27;;;1.30;;
60964;SDS011;46834;51.100;6.886;2023-02-28T08:19:39;3.37;;;1.40;;
60964;SDS011;46834;51.100;6.886;2023-02-28T08:22:09;1.80;;;1.43;;
60964;SDS011;46834;51.100;6.886;2023-02-28T08:24:35;3.40;;;1.63;;
60964;SDS011;46834;51.100;6.886;2023-02-28T08:27:00;3.00;;;1.50;;
60964;SDS011;46834;51.100;6.886;2023-02-28T08:29:26;2.87;;;1.60;;
60964;SDS011;46834;51.100;6.886;2023-02-28T08:31:51;2.50;;;1.50;;
60964;SDS011;46834;51.100;6.886;2023-02-28T08:34:17;4.37;;;1.67;;
60964;SDS011;46834;51.100;6.886;2023-02-28T08:36:43;2.97;;;1.47;;
60964;SDS011;46834;51.100;6.886;2023-02-28T08:39:12;1.87;;;1.70;;
60964;SDS011;46834;51.100;6.886;2023-02-28T08:41:37;3.53;;;1.30;;
60964;SDS011;46834;51.100;6.886;2023-02-28T08:44:03;1.90;;;1.40;;
60964;SDS011;46834;51.100;6.886;2023-02-28T08:46:29;2.80;;;1.20;;
60964;SDS011;46834;51.100;6.886;2023-02-28T08:48:55;1.53;;;1.20;;
60964;SDS011;46834;51.100;6.886;2023-02-28T08:51:25;3.00;;;1.50;;
60964;SDS011;46834;51.100;6.886;2023-02-28T08:53:52;4.33;;;1.50;;
60964;SDS011;46834;51.100;6.886;2023-02-28T08:56:25;2.13;;;1.33;;
60964;SDS011;46834;51.100;6.886;2023-02-28T08:58:53;1.33;;;1.17;;
60964;SDS011;46834;51.100;6.886;2023-02-28T09:01:22;2.00;;;1.37;;
60964;SDS011;46834;51.100;6.886;2023-02-28T09:03:55;2.27;;;1.40;;
60964;SDS011;46834;51.100;6.886;2023-02-28T09:06:22;1.70;;;1.40;;
60964;SDS011;46834;51.100;6.886;2023-02-28T09:08:51;2.20;;;1.37;;
60964;SDS011;46834;51.100;6.886;2023-02-28T09:11:17;1.77;;;1.20;;
60964;SDS011;46834;51.100;6.886;2023-02-28T09:13:44;2.90;;;1.40;;
60964;SDS011;46834;51.100;6.886;2023-02-28T09:16:12;1.43;;;1.33;;
60964;SDS011;46834;51.100;6.886;2023-02-28T09:18:41;1.83;;;1.30;;
60964;SDS011;46834;51.100;6.886;2023-02-28T09:21:08;3.30;;;1.20;;
60964;SDS011;46834;51.100;6.886;2023-02-28T09:23:39;1.80;;;1.40;;
60964;SDS011;46834;51.100;6.886;2023-02-28T09:26:16;2.60;;;1.40;;
60964;SDS011;46834;51.100;6.886;2023-02-28T09:28:53;2.30;;;1.20;;
60964;SDS011;46834;51.100;6.886;2023-02-28T09:31:21;1.57;;;1.27;;
60964;SDS011;46834;51.100;6.886;2023-02-28T09:33:53;1.77;;;1.10;;
60964;SDS011;46834;51.100;6.886;2023-02-28T09:36:24;2.63;;;1.20;;
60964;SDS011;46834;51.100;6.886;2023-02-28T09:38:51;2.80;;;1.20;;
60964;SDS011;46834;51.100;6.886;2023-02-28T09:43:56;1.60;;;1.20;;
60964;SDS011;46834;51.100;6.886;2023-02-28T09:46:32;1.33;;;1.20;;
60964;SDS011;46834;51.100;6.886;2023-02-28T09:49:15;1.20;;;1.10;;
60964;SDS011;46834;51.100;6.886;2023-02-28T09:51:59;1.93;;;1.40;;
60964;SDS011;46834;51.100;6.886;2023-02-28T09:54:59;1.40;;;1.30;;
60964;SDS011;46834;51.100;6.886;2023-02-28T09:57:44;1.93;;;1.20;;
60964;SDS011;46834;51.100;6.886;2023-02-28T10:05:56;4.57;;;1.30;;
60964;SDS011;46834;51.100;6.886;2023-02-28T10:08:32;2.87;;;1.43;;
60964;SDS011;46834;51.100;6.886;2023-02-28T10:11:18;2.03;;;1.43;;
60964;SDS011;46834;51.100;6.886;2023-02-28T10:19:22;1.40;;;1.20;;
60964;SDS011;46834;51.100;6.886;2023-02-28T10:24:47;1.53;;;1.20;;
60964;SDS011;46834;51.100;6.886;2023-02-28T10:27:21;1.97;;;1.50;;
60964;SDS011;46834;51.100;6.886;2023-02-28T10:29:53;2.67;;;1.30;;
60964;SDS011;46834;51.100;6.886;2023-02-28T10:32:23;2.87;;;1.40;;
60964;SDS011;46834;51.100;6.886;2023-02-28T10:35:10;10.30;;;1.70;;
60964;SDS011;46834;51.100;6.886;2023-02-28T10:37:50;2.07;;;1.30;;
60964;SDS011;46834;51.100;6.886;2023-02-28T10:43:17;1.80;;;1.10;;
60964;SDS011;46834;51.100;6.886;2023-02-28T10:48:57;3.70;;;1.30;;
60964;SDS011;46834;51.100;6.886;2023-02-28T10:51:51;1.83;;;1.10;;
60964;SDS011;46834;51.100;6.886;2023-02-28T10:54:28;2.03;;;1.33;;
60964;SDS011;46834;51.100;6.886;2023-02-28T10:57:19;1.63;;;1.20;;
60964;SDS011;46834;51.100;6.886;2023-02-28T10:59:53;1.83;;;1.40;;
60964;SDS011;46834;51.100;6.886;2023-02-28T11:02:41;2.70;;;1.50;;
60964;SDS011;46834;51.100;6.886;2023-02-28T11:05:31;1.93;;;1.27;;
60964;SDS011;46834;51.100;6.886;2023-02-28T11:10:45;2.63;;;1.57;;
60964;SDS011;46834;51.100;6.886;2023-02-28T11:13:20;2.70;;;1.40;;
60964;SDS011;46834;51.100;6.886;2023-02-28T11:15:53;1.50;;;1.10;;
60964;SDS011;46834;51.100;6.886;2023-02-28T11:21:24;2.67;;;1.40;;
60964;SDS011;46834;51.100;6.886;2023-02-28T11:26:52;3.10;;;1.50;;
60964;SDS011;46834;51.100;6.886;2023-02-28T11:32:01;1.43;;;1.30;;
60964;SDS011;46834;51.100;6.886;2023-02-28T11:34:41;2.23;;;1.40;;
60964;SDS011;46834;51.100;6.886;2023-02-28T11:37:13;1.50;;;1.40;;
60964;SDS011;46834;51.100;6.886;2023-02-28T11:39:44;2.10;;;1.47;;
60964;SDS011;46834;51.100;6.886;2023-02-28T11:45:00;3.07;;;1.50;;
60964;SDS011;46834;51.100;6.886;2023-02-28T11:48:14;2.40;;;1.50;;
60964;SDS011;46834;51.100;6.886;2023-02-28T11:50:56;1.93;;;1.43;;
60964;SDS011;46834;51.100;6.886;2023-02-28T11:53:57;2.47;;;1.30;;
60964;SDS011;46834;51.100;6.886;2023-02-28T11:56:47;2.20;;;1.70;;
60964;SDS011;46834;51.100;6.886;2023-02-28T12:02:35;6.17;;;1.60;;
60964;SDS011;46834;51.100;6.886;2023-02-28T12:05:47;3.90;;;1.50;;
60964;SDS011;46834;51.100;6.886;2023-02-28T12:08:40;3.30;;;1.30;;
60964;SDS011;46834;51.100;6.886;2023-02-28T12:23:42;2.50;;;1.43;;
60964;SDS011;46834;51.100;6.886;2023-02-28T12:27:05;3.30;;;1.53;;
60964;SDS011;46834;51.100;6.886;2023-02-28T12:32:47;2.20;;;1.50;;
60964;SDS011;46834;51.100;6.886;2023-02-28T12:35:37;3.23;;;1.60;;
60964;SDS011;46834;51.100;6.886;2023-02-28T12:38:19;3.53;;;1.87;;
60964;SDS011;46834;51.100;6.886;2023-02-28T12:43:40;2.80;;;1.87;;
60964;SDS011;46834;51.100;6.886;2023-02-28T12:46:17;1.90;;;1.60;;
60964;SDS011;46834;51.100;6.886;2023-02-28T12:49:05;1.77;;;1.40;;
60964;SDS011;46834;51.100;6.886;2023-02-28T12:51:37;2.03;;;1.40;;
60964;SDS011;46834;51.100;6.886;2023-02-28T12:56:57;2.20;;;1.50;;
60964;SDS011;46834;51.100;6.886;2023-02-28T13:00:08;1.60;;;1.37;;
60964;SDS011;46834;51.100;6.886;2023-02-28T13:11:47;2.23;;;1.60;;
60964;SDS011;46834;51.100;6.886;2023-02-28T13:17:01;2.40;;;1.60;;
60964;SDS011;46834;51.100;6.886;2023-02-28T13:19:38;1.60;;;1.13;;
60964;SDS011;46834;51.100;6.886;2023-02-28T13:27:31;2.07;;;1.50;;
60964;SDS011;46834;51.100;6.886;2023-02-28T13:36:30;2.23;;;1.30;;
60964;SDS011;46834;51.100;6.886;2023-02-28T13:39:01;3.33;;;1.43;;
60964;SDS011;46834;51.100;6.886;2023-02-28T13:41:48;2.07;;;1.40;;
60964;SDS011;46834;51.100;6.886;2023-02-28T13:44:18;1.77;;;1.43;;
60964;SDS011;46834;51.100;6.886;2023-02-28T14:01:27;3.77;;;1.40;;
60964;SDS011;46834;51.100;6.886;2023-02-28T14:07:00;2.13;;;1.60;;
60964;SDS011;46834;51.100;6.886;2023-02-28T14:09:28;2.57;;;1.57;;
60964;SDS011;46834;51.100;6.886;2023-02-28T14:15:36;1.63;;;1.40;;
60964;SDS011;46834;51.100;6.886;2023-02-28T14:18:13;2.93;;;1.50;;
60964;SDS011;46834;51.100;6.886;2023-02-28T14:20:47;1.67;;;1.30;;
60964;SDS011;46834;51.100;6.886;2023-02-28T14:23:26;2.70;;;1.30;;
60964;SDS011;46834;51.100;6.886;2023-02-28T14:31:41;1.60;;;1.33;;
60964;SDS011;46834;51.100;6.886;2023-02-28T14:34:26;1.53;;;1.20;;
60964;SDS011;46834;51.100;6.886;2023-02-28T14:37:13;3.73;;;1.70;;
60964;SDS011;46834;51.100;6.886;2023-02-28T14:39:45;1.87;;;1.50;;
60964;SDS011;46834;51.100;6.886;2023-02-28T14:45:24;1.80;;;1.50;;
60964;SDS011;46834;51.100;6.886;2023-02-28T14:47:58;2.13;;;1.60;;
60964;SDS011;46834;51.100;6.886;2023-02-28T14:50:28;4.72;;;2.58;;
60964;SDS011;46834;51.100;6.886;2023-02-28T14:52:58;5.20;;;3.10;;
60964;SDS011;46834;51.100;6.886;2023-02-28T14:55:26;3.87;;;2.20;;
60964;SDS011;46834;51.100;6.886;2023-02-28T14:57:59;5.33;;;1.60;;
60964;SDS011;46834;51.100;6.886;2023-02-28T15:00:53;4.33;;;1.70;;
60964;SDS011;46834;51.100;6.886;2023-02-28T15:06:04;2.80;;;1.60;;
60964;SDS011;46834;51.100;6.886;2023-02-28T15:08:38;5.13;;;1.70;;
60964;SDS011;46834;51.100;6.886;2023-02-28T15:11:05;2.33;;;1.40;;
60964;SDS011;46834;51.100;6.886;2023-02-28T15:13:48;3.03;;;1.47;;
60964;SDS011;46834;51.100;6.886;2023-02-28T15:16:25;1.87;;;1.60;;
60964;SDS011;46834;51.100;6.886;2023-02-28T15:18:59;2.00;;;1.63;;
60964;SDS011;46834;51.100;6.886;2023-02-28T15:21:37;2.03;;;1.70;;
60964;SDS011;46834;51.100;6.886;2023-02-28T15:27:11;2.37;;;1.67;;
60964;SDS011;46834;51.100;6.886;2023-02-28T15:29:46;2.53;;;1.60;;
60964;SDS011;46834;51.100;6.886;2023-02-28T15:32:21;1.90;;;1.60;;
60964;SDS011;46834;51.100;6.886;2023-02-28T15:34:56;2.50;;;1.30;;
60964;SDS011;46834;51.100;6.886;2023-02-28T15:37:48;2.33;;;1.60;;
60964;SDS011;46834;51.100;6.886;2023-02-28T15:40:26;2.10;;;1.40;;
60964;SDS011;46834;51.100;6.886;2023-02-28T15:45:50;2.47;;;1.37;;
60964;SDS011;46834;51.100;6.886;2023-02-28T15:48:35;2.03;;;1.37;;
60964;SDS011;46834;51.100;6.886;2023-02-28T15:53:48;1.50;;;1.30;;
60964;SDS011;46834;51.100;6.886;2023-02-28T15:56:27;2.73;;;1.60;;
60964;SDS011;46834;51.100;6.886;2023-02-28T15:59:25;1.67;;;1.47;;
60964;SDS011;46834;51.100;6.886;2023-02-28T16:04:35;5.13;;;1.47;;
60964;SDS011;46834;51.100;6.886;2023-02-28T16:07:03;2.27;;;1.57;;
60964;SDS011;46834;51.100;6.886;2023-02-28T16:09:31;1.87;;;1.30;;
60964;SDS011;46834;51.100;6.886;2023-02-28T16:12:00;2.47;;;1.47;;
60964;SDS011;46834;51.100;6.886;2023-02-28T16:14:28;3.23;;;1.50;;
60964;SDS011;46834;51.100;6.886;2023-02-28T16:17:05;1.77;;;1.50;;
60964;SDS011;46834;51.100;6.886;2023-02-28T16:19:40;2.30;;;1.57;;
60964;SDS011;46834;51.100;6.886;2023-02-28T16:22:05;3.60;;;1.50;;
60964;SDS011;46834;51.100;6.886;2023-02-28T16:24:34;3.10;;;1.77;;
60964;SDS011;46834;51.100;6.886;2023-02-28T16:26:59;1.70;;;1.47;;
60964;SDS011;46834;51.100;6.886;2023-02-28T16:29:27;3.00;;;1.43;;
60964;SDS011;46834;51.100;6.886;2023-02-28T16:31:56;2.43;;;1.50;;
60964;SDS011;46834;51.100;6.886;2023-02-28T16:34:23;2.17;;;1.50;;
60964;SDS011;46834;51.100;6.886;2023-02-28T16:36:49;3.97;;;1.57;;
60964;SDS011;46834;51.100;6.886;2023-02-28T16:39:15;3.90;;;2.57;;
60964;SDS011;46834;51.100;6.886;2023-02-28T16:41:41;3.73;;;1.93;;
60964;SDS011;46834;51.100;6.886;2023-02-28T16:44:14;3.27;;;2.07;;
60964;SDS011;46834;51.100;6.886;2023-02-28T16:46:52;2.80;;;1.60;;
60964;SDS011;46834;51.100;6.886;2023-02-28T16:49:18;2.17;;;1.63;;
60964;SDS011;46834;51.100;6.886;2023-02-28T16:51:44;6.37;;;1.50;;
60964;SDS011;46834;51.100;6.886;2023-02-28T16:54:09;1.80;;;1.60;;
60964;SDS011;46834;51.100;6.886;2023-02-28T16:56:42;4.60;;;1.70;;
60964;SDS011;46834;51.100;6.886;2023-02-28T16:59:12;2.87;;;1.63;;
60964;SDS011;46834;51.100;6.886;2023-02-28T17:01:39;2.20;;;1.90;;
60964;SDS011;46834;51.100;6.886;2023-02-28T17:04:05;1.87;;;1.50;;
60964;SDS011;46834;51.100;6.886;2023-02-28T17:06:31;3.27;;;1.93;;
60964;SDS011;46834;51.100;6.886;2023-02-28T17:08:57;2.17;;;1.63;;
60964;SDS011;46834;51.100;6.886;2023-02-28T17:11:24;3.10;;;1.80;;
60964;SDS011;46834;51.100;6.886;2023-02-28T17:13:51;2.30;;;1.83;;
60964;SDS011;46834;51.100;6.886;2023-02-28T17:16:32;2.10;;;1.73;;
60964;SDS011;46834;51.100;6.886;2023-02-28T17:19:02;4.33;;;1.80;;
60964;SDS011;46834;51.100;6.886;2023-02-28T17:21:31;4.30;;;1.90;;
60964;SDS011;46834;51.100;6.886;2023-02-28T17:23:58;4.87;;;2.00;;
60964;SDS011;46834;51.100;6.886;2023-02-28T17:26:25;2.90;;;1.83;;
60964;SDS011;46834;51.100;6.886;2023-02-28T17:28:51;2.07;;;1.83;;
60964;SDS011;46834;51.100;6.886;2023-02-28T17:31:20;2.80;;;1.90;;
60964;SDS011;46834;51.100;6.886;2023-02-28T17:33:47;3.13;;;2.13;;
60964;SDS011;46834;51.100;6.886;2023-02-28T17:36:14;1.93;;;1.70;;
60964;SDS011;46834;51.100;6.886;2023-02-28T17:38:49;4.97;;;2.00;;
60964;SDS011;46834;51.100;6.886;2023-02-28T17:41:16;2.73;;;1.97;;
60964;SDS011;46834;51.100;6.886;2023-02-28T17:43:42;4.33;;;2.20;;
60964;SDS011;46834;51.100;6.886;2023-02-28T17:46:15;2.13;;;1.60;;
60964;SDS011;46834;51.100;6.886;2023-02-28T17:48:49;3.30;;;2.03;;
60964;SDS011;46834;51.100;6.886;2023-02-28T17:51:19;2.30;;;1.80;;
60964;SDS011;46834;51.100;6.886;2023-02-28T17:53:47;3.03;;;1.90;;